Terminal Aerodrome Forecast
Issued by NWS

Home | Current Version | Previous Version | Text Only | Print | Product List | Glossary Off
Versions: 1 2 3 4 5 6 7 8 9 10 11 12 13 14 15 16 17 18 19 20 21 22 23 24

000
FTUS43 KABR 212327
TAFATY
TAF
KATY 212327Z 2200/2224 01009KT P6SM VCSH OVC060
     FM220400 02013G19KT P6SM VCSH OVC015
     FM220900 02013G20KT P6SM OVC003
     FM221300 01017G24KT 1SM BR OVC003
     FM221800 01015G24KT P6SM BKN008
     FM222100 36015G23KT P6SM BKN015=

USA.gov is the U.S. government's official web portal to all federal, state and local government web resources and services.